sensor_id;sensor_type;location;lat;lon;timestamp;temperature;humidity
18721;DHT22;9489;50.948;3.114;2023-03-01T00:01:16;1.90;99.90
18721;DHT22;9489;50.948;3.114;2023-03-01T00:03:42;1.90;99.90
18721;DHT22;9489;50.948;3.114;2023-03-01T00:06:08;1.90;99.90
18721;DHT22;9489;50.948;3.114;2023-03-01T00:08:35;1.90;99.90
18721;DHT22;9489;50.948;3.114;2023-03-01T00:13:30;1.90;99.90
18721;DHT22;9489;50.948;3.114;2023-03-01T00:15:56;1.80;99.90
18721;DHT22;9489;50.948;3.114;2023-03-01T00:18:21;1.80;99.90
18721;DHT22;9489;50.948;3.114;2023-03-01T00:20:52;1.80;99.90
18721;DHT22;9489;50.948;3.114;2023-03-01T00:23:18;1.80;99.90
18721;DHT22;9489;50.948;3.114;2023-03-01T00:25:43;1.80;99.90
18721;DHT22;9489;50.948;3.114;2023-03-01T00:28:09;1.80;99.90
18721;DHT22;9489;50.948;3.114;2023-03-01T00:30:35;1.70;99.90
18721;DHT22;9489;50.948;3.114;2023-03-01T00:33:00;1.70;99.90
18721;DHT22;9489;50.948;3.114;2023-03-01T00:35:26;1.70;99.90
18721;DHT22;9489;50.948;3.114;2023-03-01T00:37:51;1.70;99.90
18721;DHT22;9489;50.948;3.114;2023-03-01T00:40:24;1.70;99.90
18721;DHT22;9489;50.948;3.114;2023-03-01T00:42:50;1.70;99.90
18721;DHT22;9489;50.948;3.114;2023-03-01T00:45:16;1.70;99.90
18721;DHT22;9489;50.948;3.114;2023-03-01T00:47:41;1.70;99.90
18721;DHT22;9489;50.948;3.114;2023-03-01T00:50:08;1.70;99.90
18721;DHT22;9489;50.948;3.114;2023-03-01T00:52:34;1.70;99.90
18721;DHT22;9489;50.948;3.114;2023-03-01T00:54:59;1.70;99.90
18721;DHT22;9489;50.948;3.114;2023-03-01T00:57:25;1.70;99.90
18721;DHT22;9489;50.948;3.114;2023-03-01T00:59:51;1.80;99.90
18721;DHT22;9489;50.948;3.114;2023-03-01T01:02:18;1.70;99.90
18721;DHT22;9489;50.948;3.114;2023-03-01T01:04:44;1.70;99.90
18721;DHT22;9489;50.948;3.114;2023-03-01T01:07:10;1.70;99.90
18721;DHT22;9489;50.948;3.114;2023-03-01T01:09:36;1.70;99.90
18721;DHT22;9489;50.948;3.114;2023-03-01T01:12:02;1.70;99.90
18721;DHT22;9489;50.948;3.114;2023-03-01T01:14:28;1.70;99.90
18721;DHT22;9489;50.948;3.114;2023-03-01T01:16:54;1.70;99.90
18721;DHT22;9489;50.948;3.114;2023-03-01T01:19:20;1.80;99.90
18721;DHT22;9489;50.948;3.114;2023-03-01T01:21:45;1.80;99.90
18721;DHT22;9489;50.948;3.114;2023-03-01T01:24:11;1.80;99.90
18721;DHT22;9489;50.948;3.114;2023-03-01T01:26:37;1.90;99.90
18721;DHT22;9489;50.948;3.114;2023-03-01T01:29:04;1.90;99.90
18721;DHT22;9489;50.948;3.114;2023-03-01T01:31:31;2.00;99.90
18721;DHT22;9489;50.948;3.114;2023-03-01T01:33:59;2.00;99.90
18721;DHT22;9489;50.948;3.114;2023-03-01T01:36:25;2.00;99.90
18721;DHT22;9489;50.948;3.114;2023-03-01T01:38:51;1.90;99.90
18721;DHT22;9489;50.948;3.114;2023-03-01T01:41:18;1.90;99.90
18721;DHT22;9489;50.948;3.114;2023-03-01T01:43:46;1.90;99.90
18721;DHT22;9489;50.948;3.114;2023-03-01T01:46:32;1.80;99.90
18721;DHT22;9489;50.948;3.114;2023-03-01T01:49:07;1.80;99.90
18721;DHT22;9489;50.948;3.114;2023-03-01T01:51:40;1.80;99.90
18721;DHT22;9489;50.948;3.114;2023-03-01T01:54:12;1.80;99.90
18721;DHT22;9489;50.948;3.114;2023-03-01T01:56:43;1.80;99.90
18721;DHT22;9489;50.948;3.114;2023-03-01T01:59:10;1.80;99.90
18721;DHT22;9489;50.948;3.114;2023-03-01T02:01:36;1.80;99.90
18721;DHT22;9489;50.948;3.114;2023-03-01T02:04:02;1.80;99.90
18721;DHT22;9489;50.948;3.114;2023-03-01T02:06:36;1.80;99.90
18721;DHT22;9489;50.948;3.114;2023-03-01T02:09:07;1.70;99.90
18721;DHT22;9489;50.948;3.114;2023-03-01T02:11:36;1.70;99.90
18721;DHT22;9489;50.948;3.114;2023-03-01T02:14:03;1.70;99.90
18721;DHT22;9489;50.948;3.114;2023-03-01T02:16:29;1.70;99.90
18721;DHT22;9489;50.948;3.114;2023-03-01T02:18:57;1.70;99.90
18721;DHT22;9489;50.948;3.114;2023-03-01T02:21:55;1.70;99.90
18721;DHT22;9489;50.948;3.114;2023-03-01T02:27:06;1.60;99.90
18721;DHT22;9489;50.948;3.114;2023-03-01T02:29:32;1.50;99.90
18721;DHT22;9489;50.948;3.114;2023-03-01T02:31:59;1.50;99.90
18721;DHT22;9489;50.948;3.114;2023-03-01T02:34:25;1.50;99.90
18721;DHT22;9489;50.948;3.114;2023-03-01T02:37:00;1.50;99.90
18721;DHT22;9489;50.948;3.114;2023-03-01T02:39:59;1.50;99.90
18721;DHT22;9489;50.948;3.114;2023-03-01T02:42:33;1.50;99.90
18721;DHT22;9489;50.948;3.114;2023-03-01T02:45:01;1.50;99.90
18721;DHT22;9489;50.948;3.114;2023-03-01T02:47:26;1.50;99.90
18721;DHT22;9489;50.948;3.114;2023-03-01T02:49:52;1.50;99.90
18721;DHT22;9489;50.948;3.114;2023-03-01T02:55:09;1.50;99.90
18721;DHT22;9489;50.948;3.114;2023-03-01T02:57:38;1.50;99.90
18721;DHT22;9489;50.948;3.114;2023-03-01T03:00:08;1.50;99.90
18721;DHT22;9489;50.948;3.114;2023-03-01T03:02:35;1.50;99.90
18721;DHT22;9489;50.948;3.114;2023-03-01T03:05:11;1.50;99.90
18721;DHT22;9489;50.948;3.114;2023-03-01T03:07:39;1.40;99.90
18721;DHT22;9489;50.948;3.114;2023-03-01T03:10:08;1.50;99.90
18721;DHT22;9489;50.948;3.114;2023-03-01T03:12:34;1.50;99.90
18721;DHT22;9489;50.948;3.114;2023-03-01T03:14:59;1.40;99.90
18721;DHT22;9489;50.948;3.114;2023-03-01T03:17:25;1.50;99.90
18721;DHT22;9489;50.948;3.114;2023-03-01T03:19:51;1.40;99.90
18721;DHT22;9489;50.948;3.114;2023-03-01T03:22:16;1.40;99.90
18721;DHT22;9489;50.948;3.114;2023-03-01T03:24:42;1.40;99.90
18721;DHT22;9489;50.948;3.114;2023-03-01T03:27:08;1.30;99.90
18721;DHT22;9489;50.948;3.114;2023-03-01T03:29:33;1.30;99.90
18721;DHT22;9489;50.948;3.114;2023-03-01T03:31:59;1.20;99.90
18721;DHT22;9489;50.948;3.114;2023-03-01T03:34:25;1.20;99.90
18721;DHT22;9489;50.948;3.114;2023-03-01T03:36:54;1.20;99.90
18721;DHT22;9489;50.948;3.114;2023-03-01T03:39:25;1.20;99.90
18721;DHT22;9489;50.948;3.114;2023-03-01T03:41:52;1.20;99.90
18721;DHT22;9489;50.948;3.114;2023-03-01T03:44:18;1.10;99.90
18721;DHT22;9489;50.948;3.114;2023-03-01T03:46:44;1.10;99.90
18721;DHT22;9489;50.948;3.114;2023-03-01T03:49:09;1.10;99.90
18721;DHT22;9489;50.948;3.114;2023-03-01T03:51:35;1.10;99.90
18721;DHT22;9489;50.948;3.114;2023-03-01T03:54:00;1.10;99.90
18721;DHT22;9489;50.948;3.114;2023-03-01T03:56:26;1.10;99.90
18721;DHT22;9489;50.948;3.114;2023-03-01T03:58:52;1.10;99.90
18721;DHT22;9489;50.948;3.114;2023-03-01T04:01:18;1.10;99.90
18721;DHT22;9489;50.948;3.114;2023-03-01T04:03:44;1.10;99.90
18721;DHT22;9489;50.948;3.114;2023-03-01T04:06:15;1.00;99.90
18721;DHT22;9489;50.948;3.114;2023-03-01T04:08:41;1.00;99.90
18721;DHT22;9489;50.948;3.114;2023-03-01T04:11:06;1.00;99.90
18721;DHT22;9489;50.948;3.114;2023-03-01T04:13:52;1.00;99.90
18721;DHT22;9489;50.948;3.114;2023-03-01T04:16:18;0.90;99.90
18721;DHT22;9489;50.948;3.114;2023-03-01T04:18:44;0.90;99.90
18721;DHT22;9489;50.948;3.114;2023-03-01T04:21:10;0.90;99.90
18721;DHT22;9489;50.948;3.114;2023-03-01T04:23:37;0.90;99.90
18721;DHT22;9489;50.948;3.114;2023-03-01T04:26:03;0.80;99.90
18721;DHT22;9489;50.948;3.114;2023-03-01T04:28:41;0.90;99.90
18721;DHT22;9489;50.948;3.114;2023-03-01T04:31:13;0.90;99.90
18721;DHT22;9489;50.948;3.114;2023-03-01T04:33:43;0.90;99.90
18721;DHT22;9489;50.948;3.114;2023-03-01T04:36:10;0.90;99.90
18721;DHT22;9489;50.948;3.114;2023-03-01T04:38:39;0.90;99.90
18721;DHT22;9489;50.948;3.114;2023-03-01T04:41:08;0.90;99.90
18721;DHT22;9489;50.948;3.114;2023-03-01T04:43:34;0.80;99.90
18721;DHT22;9489;50.948;3.114;2023-03-01T04:46:04;0.90;99.90
18721;DHT22;9489;50.948;3.114;2023-03-01T04:48:32;0.90;99.90
18721;DHT22;9489;50.948;3.114;2023-03-01T04:50:58;0.90;99.90
18721;DHT22;9489;50.948;3.114;2023-03-01T04:53:24;0.80;99.90
18721;DHT22;9489;50.948;3.114;2023-03-01T04:55:50;0.80;99.90
18721;DHT22;9489;50.948;3.114;2023-03-01T04:58:16;0.80;99.90
18721;DHT22;9489;50.948;3.114;2023-03-01T05:00:42;0.80;99.90
18721;DHT22;9489;50.948;3.114;2023-03-01T05:03:08;0.80;99.90
18721;DHT22;9489;50.948;3.114;2023-03-01T05:05:36;0.80;99.90
18721;DHT22;9489;50.948;3.114;2023-03-01T05:08:08;0.80;99.90
18721;DHT22;9489;50.948;3.114;2023-03-01T05:10:35;0.70;99.90
18721;DHT22;9489;50.948;3.114;2023-03-01T05:13:02;0.70;99.90
18721;DHT22;9489;50.948;3.114;2023-03-01T05:15:30;0.70;99.90
18721;DHT22;9489;50.948;3.114;2023-03-01T05:17:58;0.60;99.90
18721;DHT22;9489;50.948;3.114;2023-03-01T05:20:29;0.60;99.90
18721;DHT22;9489;50.948;3.114;2023-03-01T05:22:57;0.50;99.90
18721;DHT22;9489;50.948;3.114;2023-03-01T05:25:24;0.50;99.90
18721;DHT22;9489;50.948;3.114;2023-03-01T05:27:50;0.50;99.90
18721;DHT22;9489;50.948;3.114;2023-03-01T05:30:16;0.50;99.90
18721;DHT22;9489;50.948;3.114;2023-03-01T05:32:45;0.50;99.90
18721;DHT22;9489;50.948;3.114;2023-03-01T05:35:16;0.50;99.90
18721;DHT22;9489;50.948;3.114;2023-03-01T05:37:44;0.50;99.90
18721;DHT22;9489;50.948;3.114;2023-03-01T05:40:14;0.50;99.90
18721;DHT22;9489;50.948;3.114;2023-03-01T05:42:48;0.50;99.90
18721;DHT22;9489;50.948;3.114;2023-03-01T05:45:15;0.50;99.90
18721;DHT22;9489;50.948;3.114;2023-03-01T05:47:43;0.40;99.90
18721;DHT22;9489;50.948;3.114;2023-03-01T05:50:13;0.40;99.90
18721;DHT22;9489;50.948;3.114;2023-03-01T05:52:39;0.40;99.90
18721;DHT22;9489;50.948;3.114;2023-03-01T05:55:05;0.40;99.90
18721;DHT22;9489;50.948;3.114;2023-03-01T05:57:31;0.30;99.90
18721;DHT22;9489;50.948;3.114;2023-03-01T05:59:56;0.30;99.90
18721;DHT22;9489;50.948;3.114;2023-03-01T06:02:22;0.30;99.90
18721;DHT22;9489;50.948;3.114;2023-03-01T06:04:47;0.30;99.90
18721;DHT22;9489;50.948;3.114;2023-03-01T06:07:13;0.20;99.90
18721;DHT22;9489;50.948;3.114;2023-03-01T06:09:38;0.20;99.90
18721;DHT22;9489;50.948;3.114;2023-03-01T06:12:04;0.30;99.90
18721;DHT22;9489;50.948;3.114;2023-03-01T06:14:30;0.30;99.90
18721;DHT22;9489;50.948;3.114;2023-03-01T06:16:56;0.30;99.90
18721;DHT22;9489;50.948;3.114;2023-03-01T06:19:21;0.20;99.90
18721;DHT22;9489;50.948;3.114;2023-03-01T06:21:47;0.20;99.90
18721;DHT22;9489;50.948;3.114;2023-03-01T06:24:12;0.30;99.90
18721;DHT22;9489;50.948;3.114;2023-03-01T06:26:38;0.30;99.90
18721;DHT22;9489;50.948;3.114;2023-03-01T06:29:04;0.30;99.90
18721;DHT22;9489;50.948;3.114;2023-03-01T06:31:29;0.30;99.90
18721;DHT22;9489;50.948;3.114;2023-03-01T06:33:55;0.20;99.90
18721;DHT22;9489;50.948;3.114;2023-03-01T06:36:23;0.30;99.90
18721;DHT22;9489;50.948;3.114;2023-03-01T06:38:49;0.30;99.90
18721;DHT22;9489;50.948;3.114;2023-03-01T06:41:28;0.40;99.90
18721;DHT22;9489;50.948;3.114;2023-03-01T06:43:54;0.40;99.90
18721;DHT22;9489;50.948;3.114;2023-03-01T06:46:20;0.40;99.90
18721;DHT22;9489;50.948;3.114;2023-03-01T06:48:46;0.40;99.90
18721;DHT22;9489;50.948;3.114;2023-03-01T06:51:12;0.40;99.90
18721;DHT22;9489;50.948;3.114;2023-03-01T06:53:38;0.50;99.90
18721;DHT22;9489;50.948;3.114;2023-03-01T06:56:04;0.50;99.90
18721;DHT22;9489;50.948;3.114;2023-03-01T06:58:29;0.50;99.90
18721;DHT22;9489;50.948;3.114;2023-03-01T07:00:55;0.60;99.90
18721;DHT22;9489;50.948;3.114;2023-03-01T07:03:21;0.60;99.90
18721;DHT22;9489;50.948;3.114;2023-03-01T07:05:49;0.70;99.90
18721;DHT22;9489;50.948;3.114;2023-03-01T07:08:15;0.70;99.90
18721;DHT22;9489;50.948;3.114;2023-03-01T07:10:40;0.70;99.90
18721;DHT22;9489;50.948;3.114;2023-03-01T07:13:06;0.70;99.90
18721;DHT22;9489;50.948;3.114;2023-03-01T07:15:32;0.80;99.90
18721;DHT22;9489;50.948;3.114;2023-03-01T07:17:58;0.90;99.90
18721;DHT22;9489;50.948;3.114;2023-03-01T07:20:24;0.90;99.90
18721;DHT22;9489;50.948;3.114;2023-03-01T07:22:55;1.00;99.90
18721;DHT22;9489;50.948;3.114;2023-03-01T07:25:21;1.10;99.90
18721;DHT22;9489;50.948;3.114;2023-03-01T07:27:51;1.10;99.90
18721;DHT22;9489;50.948;3.114;2023-03-01T07:30:17;1.20;99.90
18721;DHT22;9489;50.948;3.114;2023-03-01T07:32:43;1.50;99.90
18721;DHT22;9489;50.948;3.114;2023-03-01T07:35:10;1.90;99.90
18721;DHT22;9489;50.948;3.114;2023-03-01T07:37:36;2.40;99.90
18721;DHT22;9489;50.948;3.114;2023-03-01T07:40:02;3.00;99.90
18721;DHT22;9489;50.948;3.114;2023-03-01T07:42:27;3.40;99.90
18721;DHT22;9489;50.948;3.114;2023-03-01T07:44:53;3.90;99.90
18721;DHT22;9489;50.948;3.114;2023-03-01T07:47:19;4.50;99.90
18721;DHT22;9489;50.948;3.114;2023-03-01T07:49:44;4.90;99.90
18721;DHT22;9489;50.948;3.114;2023-03-01T07:52:11;5.50;99.90
18721;DHT22;9489;50.948;3.114;2023-03-01T07:54:37;5.80;99.90
18721;DHT22;9489;50.948;3.114;2023-03-01T07:57:03;6.30;99.90
18721;DHT22;9489;50.948;3.114;2023-03-01T07:59:29;6.80;99.90
18721;DHT22;9489;50.948;3.114;2023-03-01T08:01:57;7.20;99.90
18721;DHT22;9489;50.948;3.114;2023-03-01T08:04:23;7.40;99.90
18721;DHT22;9489;50.948;3.114;2023-03-01T08:06:51;7.90;99.90
18721;DHT22;9489;50.948;3.114;2023-03-01T08:09:16;8.20;99.90
18721;DHT22;9489;50.948;3.114;2023-03-01T08:11:42;8.60;99.90
18721;DHT22;9489;50.948;3.114;2023-03-01T08:14:08;8.80;99.90
18721;DHT22;9489;50.948;3.114;2023-03-01T08:16:34;8.70;99.90
18721;DHT22;9489;50.948;3.114;2023-03-01T08:19:08;9.20;99.90
18721;DHT22;9489;50.948;3.114;2023-03-01T08:21:34;9.60;99.90
18721;DHT22;9489;50.948;3.114;2023-03-01T08:24:01;9.80;99.90
18721;DHT22;9489;50.948;3.114;2023-03-01T08:26:27;10.20;99.90
18721;DHT22;9489;50.948;3.114;2023-03-01T08:28:52;10.50;99.90
18721;DHT22;9489;50.948;3.114;2023-03-01T08:31:25;10.80;99.90
18721;DHT22;9489;50.948;3.114;2023-03-01T08:33:53;10.90;99.90
18721;DHT22;9489;50.948;3.114;2023-03-01T08:36:24;11.10;99.90
18721;DHT22;9489;50.948;3.114;2023-03-01T08:38:51;11.70;99.90
18721;DHT22;9489;50.948;3.114;2023-03-01T08:41:17;11.80;99.90
18721;DHT22;9489;50.948;3.114;2023-03-01T08:43:43;12.20;99.90
18721;DHT22;9489;50.948;3.114;2023-03-01T08:46:09;12.20;99.90
18721;DHT22;9489;50.948;3.114;2023-03-01T08:48:35;12.00;99.90
18721;DHT22;9489;50.948;3.114;2023-03-01T08:51:27;12.30;99.90
18721;DHT22;9489;50.948;3.114;2023-03-01T08:53:54;12.50;99.90
18721;DHT22;9489;50.948;3.114;2023-03-01T08:56:20;12.30;99.90
18721;DHT22;9489;50.948;3.114;2023-03-01T08:58:47;12.40;99.90
18721;DHT22;9489;50.948;3.114;2023-03-01T09:01:16;12.60;99.90
18721;DHT22;9489;50.948;3.114;2023-03-01T09:03:43;12.80;99.90
18721;DHT22;9489;50.948;3.114;2023-03-01T09:06:09;13.10;99.90
18721;DHT22;9489;50.948;3.114;2023-03-01T09:08:36;13.00;99.90
18721;DHT22;9489;50.948;3.114;2023-03-01T09:11:07;13.00;99.90
18721;DHT22;9489;50.948;3.114;2023-03-01T09:13:33;13.00;99.90
18721;DHT22;9489;50.948;3.114;2023-03-01T09:16:01;13.60;99.90
18721;DHT22;9489;50.948;3.114;2023-03-01T09:18:27;13.70;99.90
18721;DHT22;9489;50.948;3.114;2023-03-01T09:20:53;14.00;99.70
18721;DHT22;9489;50.948;3.114;2023-03-01T09:23:20;14.30;97.20
18721;DHT22;9489;50.948;3.114;2023-03-01T09:25:46;14.50;97.70
18721;DHT22;9489;50.948;3.114;2023-03-01T09:28:12;14.50;96.60
18721;DHT22;9489;50.948;3.114;2023-03-01T09:30:37;14.90;95.60
18721;DHT22;9489;50.948;3.114;2023-03-01T09:33:03;15.10;95.50
18721;DHT22;9489;50.948;3.114;2023-03-01T09:35:29;15.00;94.00
18721;DHT22;9489;50.948;3.114;2023-03-01T09:37:54;15.20;93.40
18721;DHT22;9489;50.948;3.114;2023-03-01T09:40:24;15.30;92.60
18721;DHT22;9489;50.948;3.114;2023-03-01T09:43:18;15.50;92.00
18721;DHT22;9489;50.948;3.114;2023-03-01T09:45:46;15.60;91.60
18721;DHT22;9489;50.948;3.114;2023-03-01T09:48:25;16.10;90.80
18721;DHT22;9489;50.948;3.114;2023-03-01T09:50:52;16.50;86.60
18721;DHT22;9489;50.948;3.114;2023-03-01T09:53:21;15.70;86.00
18721;DHT22;9489;50.948;3.114;2023-03-01T09:56:27;15.30;85.90
18721;DHT22;9489;50.948;3.114;2023-03-01T10:01:38;15.20;84.80
18721;DHT22;9489;50.948;3.114;2023-03-01T10:06:40;15.60;83.40
18721;DHT22;9489;50.948;3.114;2023-03-01T10:09:14;15.60;83.50
18721;DHT22;9489;50.948;3.114;2023-03-01T10:11:51;16.10;82.30
18721;DHT22;9489;50.948;3.114;2023-03-01T10:19:34;16.90;80.50
18721;DHT22;9489;50.948;3.114;2023-03-01T10:22:21;17.90;75.70
18721;DHT22;9489;50.948;3.114;2023-03-01T10:24:49;17.50;74.10
18721;DHT22;9489;50.948;3.114;2023-03-01T10:27:26;17.30;73.10
18721;DHT22;9489;50.948;3.114;2023-03-01T10:30:11;17.60;73.60
18721;DHT22;9489;50.948;3.114;2023-03-01T10:32:39;17.70;70.30
18721;DHT22;9489;50.948;3.114;2023-03-01T10:38:08;17.10;71.60
18721;DHT22;9489;50.948;3.114;2023-03-01T10:40:36;17.60;71.20
18721;DHT22;9489;50.948;3.114;2023-03-01T10:43:04;17.90;70.50
18721;DHT22;9489;50.948;3.114;2023-03-01T10:48:15;18.40;70.00
18721;DHT22;9489;50.948;3.114;2023-03-01T10:50:49;18.80;67.00
18721;DHT22;9489;50.948;3.114;2023-03-01T10:53:34;19.00;67.30
18721;DHT22;9489;50.948;3.114;2023-03-01T10:56:09;19.00;66.00
18721;DHT22;9489;50.948;3.114;2023-03-01T10:58:40;18.90;65.90
18721;DHT22;9489;50.948;3.114;2023-03-01T11:01:25;19.40;64.80
18721;DHT22;9489;50.948;3.114;2023-03-01T11:04:11;19.50;61.90
18721;DHT22;9489;50.948;3.114;2023-03-01T11:06:39;19.60;60.80
18721;DHT22;9489;50.948;3.114;2023-03-01T11:09:24;20.10;61.00
18721;DHT22;9489;50.948;3.114;2023-03-01T11:11:57;19.00;60.80
18721;DHT22;9489;50.948;3.114;2023-03-01T11:14:23;18.80;61.80
18721;DHT22;9489;50.948;3.114;2023-03-01T11:17:02;19.30;61.80
18721;DHT22;9489;50.948;3.114;2023-03-01T11:19:28;18.80;60.50
18721;DHT22;9489;50.948;3.114;2023-03-01T11:22:07;18.90;61.00
18721;DHT22;9489;50.948;3.114;2023-03-01T11:24:45;19.60;58.90
18721;DHT22;9489;50.948;3.114;2023-03-01T11:27:27;18.90;59.20
18721;DHT22;9489;50.948;3.114;2023-03-01T11:35:26;19.80;57.80
18721;DHT22;9489;50.948;3.114;2023-03-01T11:45:19;19.60;56.90
18721;DHT22;9489;50.948;3.114;2023-03-01T11:50:27;19.40;58.10
18721;DHT22;9489;50.948;3.114;2023-03-01T12:01:40;19.70;56.80
18721;DHT22;9489;50.948;3.114;2023-03-01T12:04:44;20.30;57.00
18721;DHT22;9489;50.948;3.114;2023-03-01T12:10:28;20.40;55.30
18721;DHT22;9489;50.948;3.114;2023-03-01T12:13:23;20.70;53.90
18721;DHT22;9489;50.948;3.114;2023-03-01T12:15:56;20.70;55.20
18721;DHT22;9489;50.948;3.114;2023-03-01T12:21:09;21.70;53.90
18721;DHT22;9489;50.948;3.114;2023-03-01T12:31:50;22.30;50.40
18721;DHT22;9489;50.948;3.114;2023-03-01T12:44:40;21.50;50.40
18721;DHT22;9489;50.948;3.114;2023-03-01T12:47:30;21.30;50.70
18721;DHT22;9489;50.948;3.114;2023-03-01T12:50:06;20.90;50.40
18721;DHT22;9489;50.948;3.114;2023-03-01T12:53:00;20.80;52.30
18721;DHT22;9489;50.948;3.114;2023-03-01T12:55:38;20.40;53.90
18721;DHT22;9489;50.948;3.114;2023-03-01T12:58:11;21.00;52.90
18721;DHT22;9489;50.948;3.114;2023-03-01T13:00:45;20.80;51.40
18721;DHT22;9489;50.948;3.114;2023-03-01T13:11:48;20.10;51.60
18721;DHT22;9489;50.948;3.114;2023-03-01T13:16:46;19.70;51.80
18721;DHT22;9489;50.948;3.114;2023-03-01T13:19:25;19.20;52.20
18721;DHT22;9489;50.948;3.114;2023-03-01T13:21:53;19.70;53.70
18721;DHT22;9489;50.948;3.114;2023-03-01T13:32:26;19.00;52.70
18721;DHT22;9489;50.948;3.114;2023-03-01T13:37:44;19.90;54.10
18721;DHT22;9489;50.948;3.114;2023-03-01T13:42:56;19.90;52.30
18721;DHT22;9489;50.948;3.114;2023-03-01T13:45:31;19.20;52.80
18721;DHT22;9489;50.948;3.114;2023-03-01T13:50:43;19.10;53.50
18721;DHT22;9489;50.948;3.114;2023-03-01T13:53:16;19.00;53.40
18721;DHT22;9489;50.948;3.114;2023-03-01T13:55:51;19.30;53.20
18721;DHT22;9489;50.948;3.114;2023-03-01T13:58:25;19.10;53.10
18721;DHT22;9489;50.948;3.114;2023-03-01T14:01:07;19.00;52.60
18721;DHT22;9489;50.948;3.114;2023-03-01T14:03:40;18.20;53.70
18721;DHT22;9489;50.948;3.114;2023-03-01T14:06:16;18.90;54.40
18721;DHT22;9489;50.948;3.114;2023-03-01T14:08:46;19.30;52.90
18721;DHT22;9489;50.948;3.114;2023-03-01T14:19:25;19.40;53.70
18721;DHT22;9489;50.948;3.114;2023-03-01T14:25:37;19.40;53.30
18721;DHT22;9489;50.948;3.114;2023-03-01T14:28:27;18.70;55.30
18721;DHT22;9489;50.948;3.114;2023-03-01T14:30:55;18.50;55.30
18721;DHT22;9489;50.948;3.114;2023-03-01T14:33:35;18.70;55.60
18721;DHT22;9489;50.948;3.114;2023-03-01T14:36:11;19.30;55.10
18721;DHT22;9489;50.948;3.114;2023-03-01T14:38:46;19.50;55.00
18721;DHT22;9489;50.948;3.114;2023-03-01T14:41:17;19.20;55.80
18721;DHT22;9489;50.948;3.114;2023-03-01T14:43:57;18.70;55.60
18721;DHT22;9489;50.948;3.114;2023-03-01T14:46:35;18.60;55.10
18721;DHT22;9489;50.948;3.114;2023-03-01T14:49:25;18.80;54.40
18721;DHT22;9489;50.948;3.114;2023-03-01T14:54:29;18.20;56.20
18721;DHT22;9489;50.948;3.114;2023-03-01T14:56:59;18.40;55.60
18721;DHT22;9489;50.948;3.114;2023-03-01T14:59:26;17.90;57.00
18721;DHT22;9489;50.948;3.114;2023-03-01T15:01:54;18.20;57.40
18721;DHT22;9489;50.948;3.114;2023-03-01T15:04:22;17.90;57.50
18721;DHT22;9489;50.948;3.114;2023-03-01T15:06:51;17.40;57.90
18721;DHT22;9489;50.948;3.114;2023-03-01T15:09:17;17.50;57.70
18721;DHT22;9489;50.948;3.114;2023-03-01T15:11:44;17.20;59.20
18721;DHT22;9489;50.948;3.114;2023-03-01T15:16:52;16.80;58.20
18721;DHT22;9489;50.948;3.114;2023-03-01T15:19:18;16.60;58.60
18721;DHT22;9489;50.948;3.114;2023-03-01T15:21:47;16.10;58.60
18721;DHT22;9489;50.948;3.114;2023-03-01T15:26:57;16.70;59.30
18721;DHT22;9489;50.948;3.114;2023-03-01T15:29:30;16.70;58.80
18721;DHT22;9489;50.948;3.114;2023-03-01T15:34:35;15.80;60.30
18721;DHT22;9489;50.948;3.114;2023-03-01T15:37:15;16.10;59.80
18721;DHT22;9489;50.948;3.114;2023-03-01T15:39:56;15.90;59.60
18721;DHT22;9489;50.948;3.114;2023-03-01T15:48:05;16.00;60.70
18721;DHT22;9489;50.948;3.114;2023-03-01T15:50:33;15.60;60.70
18721;DHT22;9489;50.948;3.114;2023-03-01T15:53:00;15.70;61.30
18721;DHT22;9489;50.948;3.114;2023-03-01T15:55:29;15.90;61.40
18721;DHT22;9489;50.948;3.114;2023-03-01T15:58:14;15.80;61.50
18721;DHT22;9489;50.948;3.114;2023-03-01T16:00:40;16.00;61.00
18721;DHT22;9489;50.948;3.114;2023-03-01T16:03:06;15.60;61.60
18721;DHT22;9489;50.948;3.114;2023-03-01T16:05:35;15.60;61.60
18721;DHT22;9489;50.948;3.114;2023-03-01T16:08:02;15.20;62.30
18721;DHT22;9489;50.948;3.114;2023-03-01T16:10:28;15.10;64.00
18721;DHT22;9489;50.948;3.114;2023-03-01T16:12:54;14.90;63.70
18721;DHT22;9489;50.948;3.114;2023-03-01T16:15:22;14.30;65.20
18721;DHT22;9489;50.948;3.114;2023-03-01T16:17:48;14.20;65.80
18721;DHT22;9489;50.948;3.114;2023-03-01T16:20:15;14.50;65.10
18721;DHT22;9489;50.948;3.114;2023-03-01T16:22:44;14.60;65.20
18721;DHT22;9489;50.948;3.114;2023-03-01T16:25:11;14.60;65.30
18721;DHT22;9489;50.948;3.114;2023-03-01T16:27:38;14.40;65.40
18721;DHT22;9489;50.948;3.114;2023-03-01T16:30:05;14.20;65.60
18721;DHT22;9489;50.948;3.114;2023-03-01T16:32:31;13.50;66.90
18721;DHT22;9489;50.948;3.114;2023-03-01T16:34:57;13.60;68.10
18721;DHT22;9489;50.948;3.114;2023-03-01T16:37:22;13.50;68.50
18721;DHT22;9489;50.948;3.114;2023-03-01T16:39:48;13.20;68.70
18721;DHT22;9489;50.948;3.114;2023-03-01T16:42:17;13.10;68.70
18721;DHT22;9489;50.948;3.114;2023-03-01T16:44:43;13.00;68.90
18721;DHT22;9489;50.948;3.114;2023-03-01T16:47:08;12.60;69.30
18721;DHT22;9489;50.948;3.114;2023-03-01T16:49:34;12.30;71.70
18721;DHT22;9489;50.948;3.114;2023-03-01T16:51:59;12.10;72.90
18721;DHT22;9489;50.948;3.114;2023-03-01T16:54:25;12.10;73.00
18721;DHT22;9489;50.948;3.114;2023-03-01T16:56:51;12.20;73.50
18721;DHT22;9489;50.948;3.114;2023-03-01T16:59:16;12.00;74.10
18721;DHT22;9489;50.948;3.114;2023-03-01T17:01:44;11.50;74.60
18721;DHT22;9489;50.948;3.114;2023-03-01T17:04:12;11.10;75.90
18721;DHT22;9489;50.948;3.114;2023-03-01T17:06:37;10.80;77.50
18721;DHT22;9489;50.948;3.114;2023-03-01T17:09:03;10.30;79.10
18721;DHT22;9489;50.948;3.114;2023-03-01T17:11:29;9.70;80.90
18721;DHT22;9489;50.948;3.114;2023-03-01T17:13:54;9.10;84.20
18721;DHT22;9489;50.948;3.114;2023-03-01T17:16:20;9.00;86.10
18721;DHT22;9489;50.948;3.114;2023-03-01T17:18:46;8.80;87.40
18721;DHT22;9489;50.948;3.114;2023-03-01T17:21:12;8.50;89.10
18721;DHT22;9489;50.948;3.114;2023-03-01T17:23:40;8.40;91.20
18721;DHT22;9489;50.948;3.114;2023-03-01T17:26:07;8.30;91.70
18721;DHT22;9489;50.948;3.114;2023-03-01T17:28:34;8.10;92.30
18721;DHT22;9489;50.948;3.114;2023-03-01T17:31:01;7.90;93.20
18721;DHT22;9489;50.948;3.114;2023-03-01T17:33:27;7.80;94.00
18721;DHT22;9489;50.948;3.114;2023-03-01T17:35:56;7.70;94.40
18721;DHT22;9489;50.948;3.114;2023-03-01T17:38:21;7.60;95.40
18721;DHT22;9489;50.948;3.114;2023-03-01T17:40:47;7.50;96.00
18721;DHT22;9489;50.948;3.114;2023-03-01T17:43:15;7.50;96.90
18721;DHT22;9489;50.948;3.114;2023-03-01T17:45:41;7.30;98.00
18721;DHT22;9489;50.948;3.114;2023-03-01T17:48:09;7.30;98.80
18721;DHT22;9489;50.948;3.114;2023-03-01T17:50:37;7.20;99.90
18721;DHT22;9489;50.948;3.114;2023-03-01T17:53:05;7.20;99.90
18721;DHT22;9489;50.948;3.114;2023-03-01T17:55:34;7.10;99.90
18721;DHT22;9489;50.948;3.114;2023-03-01T17:58:00;7.10;99.90
18721;DHT22;9489;50.948;3.114;2023-03-01T18:00:27;7.00;99.90
18721;DHT22;9489;50.948;3.114;2023-03-01T18:02:53;7.00;99.90
18721;DHT22;9489;50.948;3.114;2023-03-01T18:05:18;6.80;99.90
18721;DHT22;9489;50.948;3.114;2023-03-01T18:07:44;6.90;99.90
18721;DHT22;9489;50.948;3.114;2023-03-01T18:10:10;6.80;99.90
18721;DHT22;9489;50.948;3.114;2023-03-01T18:12:36;6.70;99.90
18721;DHT22;9489;50.948;3.114;2023-03-01T18:15:04;6.70;99.90